createdAt,value
2023-03-22T00:00:56.387Z,10.11
2023-03-22T00:03:27.704Z,10.00
2023-03-22T00:05:58.976Z,10.28
2023-03-22T00:08:29.686Z,9.99
2023-03-22T00:11:00.248Z,10.03
2023-03-22T00:13:35.626Z,10.04
2023-03-22T00:16:07.334Z,9.91
2023-03-22T00:18:39.864Z,9.90
2023-03-22T00:21:13.475Z,9.83
2023-03-22T00:23:45.951Z,9.64
2023-03-22T00:26:16.571Z,9.71
2023-03-22T00:28:47.065Z,9.57
2023-03-22T00:31:17.719Z,9.50
2023-03-22T00:33:48.761Z,9.70
2023-03-22T00:36:20.963Z,9.70
2023-03-22T00:38:52.585Z,9.54
2023-03-22T00:41:25.525Z,9.53
2023-03-22T00:43:56.103Z,9.63
2023-03-22T00:46:27.963Z,9.59
2023-03-22T00:48:58.803Z,9.51
2023-03-22T00:51:31.012Z,9.65
2023-03-22T00:54:01.668Z,9.56
2023-03-22T00:56:37.938Z,9.43
2023-03-22T00:59:06.719Z,9.40
2023-03-22T01:01:37.430Z,9.48
2023-03-22T01:04:08.284Z,9.48
2023-03-22T01:06:38.996Z,9.55
2023-03-22T01:09:12.710Z,9.46
2023-03-22T01:11:44.316Z,9.57
2023-03-22T01:14:19.357Z,9.57
2023-03-22T01:16:50.136Z,9.57
2023-03-22T01:19:20.872Z,9.68
2023-03-22T01:21:52.551Z,9.66
2023-03-22T01:24:23.265Z,9.48
2023-03-22T01:26:53.835Z,9.54
2023-03-22T01:29:26.105Z,9.79
2023-03-22T01:31:56.620Z,9.65
2023-03-22T01:34:27.166Z,9.56
2023-03-22T01:36:59.270Z,9.50
2023-03-22T01:39:32.036Z,9.46
2023-03-22T01:42:05.573Z,9.48
2023-03-22T01:44:37.541Z,9.42
2023-03-22T01:47:11.478Z,9.40
2023-03-22T01:49:43.457Z,9.38
2023-03-22T01:52:15.781Z,9.44
2023-03-22T01:54:49.486Z,9.42
2023-03-22T01:57:20.136Z,9.49
2023-03-22T01:59:51.313Z,9.48
2023-03-22T02:02:22.201Z,9.52
2023-03-22T02:04:54.550Z,9.43
2023-03-22T02:07:28.308Z,9.45
2023-03-22T02:09:59.877Z,9.42
2023-03-22T02:12:53.162Z,9.37
2023-03-22T02:15:32.329Z,9.41
2023-03-22T02:18:10.629Z,9.38
2023-03-22T02:21:00.182Z,9.34
2023-03-22T02:23:43.224Z,9.35
2023-03-22T02:26:28.777Z,9.28
2023-03-22T02:29:22.587Z,9.18
2023-03-22T02:32:25.179Z,9.18
2023-03-22T02:35:16.704Z,9.08
2023-03-22T02:38:13.318Z,9.28
2023-03-22T02:41:06.366Z,9.18
2023-03-22T02:43:48.413Z,9.06
2023-03-22T02:46:25.163Z,9.20
2023-03-22T02:48:58.829Z,9.19
2023-03-22T02:51:55.283Z,9.13
2023-03-22T02:54:28.864Z,9.23
2023-03-22T02:57:02.472Z,9.20
2023-03-22T02:59:36.867Z,9.17
2023-03-22T03:02:10.726Z,9.35
2023-03-22T03:04:45.502Z,9.18
2023-03-22T03:07:20.290Z,9.15
2023-03-22T03:09:53.237Z,9.15
2023-03-22T03:12:26.641Z,9.06
2023-03-22T03:14:57.829Z,9.16
2023-03-22T03:17:37.361Z,8.93
2023-03-22T03:20:12.234Z,9.02
2023-03-22T03:22:57.920Z,8.97
2023-03-22T03:25:48.334Z,8.84
2023-03-22T03:28:32.481Z,8.84
2023-03-22T03:31:31.902Z,9.04
2023-03-22T03:34:05.562Z,9.01
2023-03-22T03:36:38.386Z,9.02
2023-03-22T03:39:12.405Z,9.11
2023-03-22T03:41:47.322Z,9.07
2023-03-22T03:44:19.312Z,9.22
2023-03-22T03:46:51.724Z,9.02
2023-03-22T03:49:24.104Z,9.13
2023-03-22T03:51:56.300Z,9.14
2023-03-22T03:54:26.945Z,9.24
2023-03-22T03:56:57.834Z,9.12
2023-03-22T03:59:29.858Z,9.05
2023-03-22T04:02:00.483Z,9.04
2023-03-22T04:04:31.247Z,9.12
2023-03-22T04:07:04.652Z,9.06
2023-03-22T04:09:38.004Z,9.06
2023-03-22T04:12:09.755Z,9.20
2023-03-22T04:14:44.275Z,9.28
2023-03-22T04:17:18.296Z,9.10
2023-03-22T04:19:49.594Z,9.30
2023-03-22T04:22:20.072Z,9.54
2023-03-22T04:24:51.128Z,9.40
2023-03-22T04:27:22.799Z,9.37
2023-03-22T04:29:54.596Z,9.24
2023-03-22T04:32:25.310Z,9.24
2023-03-22T04:34:56.222Z,9.22
2023-03-22T04:37:27.170Z,9.28
2023-03-22T04:39:58.948Z,9.32
2023-03-22T04:42:30.557Z,9.22
2023-03-22T04:45:03.581Z,9.30
2023-03-22T04:47:34.212Z,9.22
2023-03-22T04:50:07.490Z,9.23
2023-03-22T04:52:38.198Z,9.30
2023-03-22T04:55:09.764Z,9.28
2023-03-22T04:57:40.465Z,9.12
2023-03-22T05:00:11.986Z,9.50
2023-03-22T05:02:42.638Z,9.23
2023-03-22T05:05:13.355Z,9.22
2023-03-22T05:07:47.061Z,9.08
2023-03-22T05:10:17.657Z,9.06
2023-03-22T05:12:49.907Z,9.26
2023-03-22T05:15:20.365Z,9.28
2023-03-22T05:17:51.002Z,9.29
2023-03-22T05:20:22.908Z,9.31
2023-03-22T05:22:56.166Z,9.34
2023-03-22T05:25:26.783Z,9.25
2023-03-22T05:27:58.984Z,9.27
2023-03-22T05:30:30.753Z,9.32
2023-03-22T05:33:03.121Z,9.28
2023-03-22T05:35:35.575Z,9.36
2023-03-22T05:38:06.788Z,9.34
2023-03-22T05:40:39.468Z,9.26
2023-03-22T05:43:10.596Z,9.32
2023-03-22T05:45:42.456Z,9.39
2023-03-22T05:48:13.403Z,9.38
2023-03-22T05:50:44.261Z,9.40
2023-03-22T05:53:14.852Z,9.32
2023-03-22T05:55:46.202Z,9.53
2023-03-22T05:58:18.445Z,9.42
2023-03-22T06:00:52.179Z,9.45
2023-03-22T06:03:24.568Z,9.28
2023-03-22T06:05:55.703Z,9.51
2023-03-22T06:08:26.876Z,9.44
2023-03-22T06:10:58.168Z,9.40
2023-03-22T06:13:30.713Z,9.54
2023-03-22T06:16:03.025Z,9.45
2023-03-22T06:18:34.227Z,9.48
2023-03-22T06:21:08.354Z,9.53
2023-03-22T06:23:44.386Z,9.66
2023-03-22T06:26:14.871Z,9.62
2023-03-22T06:28:47.664Z,9.84
2023-03-22T06:31:18.155Z,9.96
2023-03-22T06:33:48.770Z,9.86
2023-03-22T06:36:19.455Z,9.87
2023-03-22T06:38:50.601Z,10.16
2023-03-22T06:41:22.018Z,10.08
2023-03-22T06:43:53.069Z,10.12
2023-03-22T06:46:23.767Z,10.20
2023-03-22T06:48:54.326Z,10.06
2023-03-22T06:51:26.196Z,10.07
2023-03-22T06:53:56.602Z,10.33
2023-03-22T06:56:29.266Z,10.21
2023-03-22T06:59:00.259Z,10.30
2023-03-22T07:01:31.025Z,10.33
2023-03-22T07:04:01.689Z,10.28
2023-03-22T07:06:32.756Z,10.45
2023-03-22T07:09:03.482Z,10.29
2023-03-22T07:11:35.630Z,10.31
2023-03-22T07:14:07.718Z,10.50
2023-03-22T07:16:40.122Z,10.49
2023-03-22T07:19:12.026Z,10.64
2023-03-22T07:21:44.810Z,11.00
2023-03-22T07:24:15.824Z,11.09
2023-03-22T07:26:46.565Z,11.18
2023-03-22T07:29:17.187Z,11.14
2023-03-22T07:31:47.768Z,11.32
2023-03-22T07:34:18.144Z,11.28
2023-03-22T07:36:52.162Z,11.34
2023-03-22T07:39:24.218Z,11.18
2023-03-22T07:41:54.715Z,11.44
2023-03-22T07:44:25.941Z,11.57
2023-03-22T07:46:59.163Z,11.55
2023-03-22T07:49:30.275Z,11.78
2023-03-22T07:52:01.126Z,11.81
2023-03-22T07:54:34.242Z,12.52
2023-03-22T07:57:03.886Z,12.51
2023-03-22T07:59:34.413Z,12.58
2023-03-22T08:02:05.074Z,12.75
2023-03-22T08:04:35.619Z,12.82
2023-03-22T08:07:07.823Z,12.97
2023-03-22T08:09:39.442Z,13.06
2023-03-22T08:12:09.916Z,13.28
2023-03-22T08:14:40.379Z,13.46
2023-03-22T08:17:11.309Z,13.62
2023-03-22T08:19:41.818Z,13.57
2023-03-22T08:22:12.325Z,13.61
2023-03-22T08:24:42.796Z,13.53
2023-03-22T08:27:14.202Z,13.42
2023-03-22T08:29:44.621Z,13.68
2023-03-22T08:32:16.326Z,13.53
2023-03-22T08:34:49.340Z,13.46
2023-03-22T08:37:20.409Z,13.40
2023-03-22T08:39:51.996Z,13.64
2023-03-22T08:42:24.093Z,13.85
2023-03-22T08:44:54.653Z,13.40
2023-03-22T08:47:27.546Z,13.81
2023-03-22T08:49:58.146Z,13.88
2023-03-22T08:52:30.194Z,13.57
2023-03-22T08:55:01.137Z,13.33
2023-03-22T08:57:31.882Z,13.62
2023-03-22T09:00:06.491Z,13.86
2023-03-22T09:02:37.368Z,14.08
2023-03-22T09:05:08.091Z,14.10
2023-03-22T09:07:39.199Z,14.56
2023-03-22T09:10:10.686Z,14.84
2023-03-22T09:12:41.162Z,14.56
2023-03-22T09:15:12.170Z,14.53
2023-03-22T09:17:42.621Z,14.64
2023-03-22T09:20:17.959Z,14.95
2023-03-22T09:22:48.736Z,14.59
2023-03-22T09:25:19.537Z,15.06
2023-03-22T09:27:51.527Z,15.44
2023-03-22T09:30:21.968Z,15.78
2023-03-22T09:32:52.502Z,15.97
2023-03-22T09:35:23.548Z,15.81
2023-03-22T09:37:54.676Z,15.82
2023-03-22T09:40:28.694Z,15.74
2023-03-22T09:43:02.086Z,15.59
2023-03-22T09:45:37.003Z,15.53
2023-03-22T09:48:13.739Z,15.50
2023-03-22T09:50:49.816Z,15.65
2023-03-22T09:53:23.706Z,15.70
2023-03-22T09:56:12.378Z,15.92
2023-03-22T09:58:51.484Z,16.18
2023-03-22T10:01:51.811Z,16.52
2023-03-22T10:04:36.794Z,17.10
2023-03-22T10:07:13.771Z,17.00
2023-03-22T10:10:11.287Z,17.28
2023-03-22T10:12:47.576Z,16.60
2023-03-22T10:15:21.058Z,15.68
2023-03-22T10:17:54.413Z,15.44
2023-03-22T10:20:28.494Z,16.15
2023-03-22T10:23:04.347Z,16.19
2023-03-22T10:25:39.014Z,16.44
2023-03-22T10:28:18.840Z,16.09
2023-03-22T10:30:54.759Z,16.11
2023-03-22T10:33:40.435Z,16.81
2023-03-22T10:36:16.589Z,16.99
2023-03-22T10:38:54.268Z,17.48
2023-03-22T10:41:26.525Z,16.87
2023-03-22T10:44:02.980Z,17.35
2023-03-22T10:46:37.579Z,17.36
2023-03-22T10:49:11.004Z,17.52
2023-03-22T10:51:54.696Z,16.99
2023-03-22T10:54:27.127Z,16.61
2023-03-22T10:56:57.625Z,16.18
2023-03-22T10:59:51.962Z,16.42
2023-03-22T11:02:28.104Z,17.06
2023-03-22T11:05:01.341Z,17.22
2023-03-22T11:07:35.164Z,17.40
2023-03-22T11:10:11.813Z,17.53
2023-03-22T11:12:54.250Z,17.26
2023-03-22T11:15:33.888Z,17.30
2023-03-22T11:18:07.440Z,17.48
2023-03-22T11:20:43.773Z,17.33
2023-03-22T11:23:18.015Z,17.40
2023-03-22T11:25:51.539Z,16.95
2023-03-22T11:28:24.654Z,17.22
2023-03-22T11:31:11.467Z,17.29
2023-03-22T11:33:58.832Z,17.94
2023-03-22T11:36:30.268Z,18.03
2023-03-22T11:39:04.100Z,18.07
2023-03-22T11:41:40.815Z,18.03
2023-03-22T11:44:15.428Z,17.97
2023-03-22T11:47:03.342Z,17.74
2023-03-22T11:49:36.858Z,18.02
2023-03-22T11:52:11.820Z,17.90
2023-03-22T11:54:45.832Z,17.15
2023-03-22T11:57:19.508Z,17.46
2023-03-22T11:59:56.753Z,17.74
2023-03-22T12:02:34.216Z,17.95
2023-03-22T12:05:10.664Z,18.17
2023-03-22T12:07:43.766Z,18.00
2023-03-22T12:10:26.997Z,18.15
2023-03-22T12:13:07.896Z,18.16
2023-03-22T12:15:42.160Z,17.94
2023-03-22T12:18:23.197Z,18.15
2023-03-22T12:20:59.128Z,17.63
2023-03-22T12:23:34.581Z,17.34
2023-03-22T12:26:18.327Z,17.90
2023-03-22T12:29:01.825Z,17.64
2023-03-22T12:31:38.530Z,18.08
2023-03-22T12:37:09.212Z,18.10
2023-03-22T12:39:43.780Z,18.80
2023-03-22T12:42:21.983Z,18.39
2023-03-22T12:45:04.617Z,18.45
2023-03-22T12:47:31.172Z,18.57
2023-03-22T12:50:05.555Z,17.91
2023-03-22T12:52:45.606Z,18.33
2023-03-22T12:55:25.374Z,18.44
2023-03-22T12:57:59.899Z,18.52
2023-03-22T13:00:48.592Z,18.02
2023-03-22T13:03:23.654Z,17.62
2023-03-22T13:06:03.499Z,17.36
2023-03-22T13:09:12.000Z,17.11
2023-03-22T13:11:44.644Z,17.16
2023-03-22T13:14:54.134Z,17.22
2023-03-22T13:17:27.835Z,17.29
2023-03-22T13:20:14.782Z,17.52
2023-03-22T13:22:52.556Z,17.42
2023-03-22T13:25:37.893Z,17.34
2023-03-22T13:28:32.077Z,17.17
2023-03-22T13:31:02.590Z,17.45
2023-03-22T13:33:36.420Z,17.74
2023-03-22T13:36:25.953Z,17.94
2023-03-22T13:39:03.162Z,17.98
2023-03-22T13:41:35.560Z,18.21
2023-03-22T13:44:30.053Z,18.16
2023-03-22T13:47:06.037Z,17.52
2023-03-22T13:49:46.283Z,17.36
2023-03-22T13:52:27.641Z,17.34
2023-03-22T13:54:59.571Z,17.21
2023-03-22T13:57:48.832Z,17.10
2023-03-22T14:00:25.052Z,17.32
2023-03-22T14:02:57.062Z,17.40
2023-03-22T14:05:32.316Z,17.58
2023-03-22T14:08:04.484Z,17.46
2023-03-22T14:10:53.791Z,17.82
2023-03-22T14:13:31.184Z,17.92
2023-03-22T14:16:21.977Z,18.28
2023-03-22T14:18:52.773Z,18.25
2023-03-22T14:21:27.549Z,18.52
